Main page
METAR-TAF:

METAR-TAF

Airports :

Blackpool Airport

Blackpool, England

latitude: 53-46N, longitude: 003-02W, elevation: 10 m

Current weather observation

The report was made 40 minutes ago, at 19:20 UTC
Wind 9 kt from the West
Temperature 14°C
Humidity 77%
Pressure 1027 hPa
Visibility 10 km or more
no clouds below 1500 m and no cumulonimbus

METAR: EGNH 231920Z 28009KT CAVOK 14/10 Q1027

Time: 21:00 (20:00 UTC)

Forecast

The report was made 3 hours and 5 minutes ago, at 16:55 UTC
Forecast valid from 23 at 18 UTC to 23 at 20 UTC
Wind 9 kt from the West/Northwest
Visibility 10 km or more
Few clouds at a height of 2000 ft

TAF: EGNH 231655Z 2318/2320 30009KT 9999 FEW020

Weather observations and forecasts of more than 4000 airports (METAR and TAF reports).

The available stations are represented by yellow and red dots on the map.

Hover mouse over dot to see the name of the station.

Then click to see weather observations and forecasts.

To change the map : click on the green buttons with a black cross to zoom in, on the green button with a dash to zoom out, or on the green arrows for adjacent maps.


METAR-TAF: